createdAt,value
2022-12-11T00:00:46.565Z,-3.28
2022-12-11T00:03:16.064Z,-3.26
2022-12-11T00:05:44.555Z,-3.26
2022-12-11T00:08:12.102Z,-3.27
2022-12-11T00:10:39.065Z,-3.28
2022-12-11T00:13:05.778Z,-3.35
2022-12-11T00:15:32.599Z,-3.35
2022-12-11T00:17:59.128Z,-3.38
2022-12-11T00:20:25.692Z,-3.37
2022-12-11T00:22:52.291Z,-3.43
2022-12-11T00:25:18.862Z,-3.37
2022-12-11T00:27:46.748Z,-3.43
2022-12-11T00:30:14.335Z,-3.44
2022-12-11T00:32:40.868Z,-3.45
2022-12-11T00:35:08.048Z,-3.46
2022-12-11T00:37:35.011Z,-3.48
2022-12-11T00:40:01.635Z,-3.42
2022-12-11T00:42:28.127Z,-3.47
2022-12-11T00:44:56.366Z,-3.49
2022-12-11T00:47:22.979Z,-3.47
2022-12-11T00:49:50.125Z,-3.48
2022-12-11T00:52:18.066Z,-3.68
2022-12-11T00:54:45.493Z,-3.64
2022-12-11T00:57:12.006Z,-3.53
2022-12-11T00:59:38.777Z,-3.55
2022-12-11T01:02:05.401Z,-3.58
2022-12-11T01:04:32.287Z,-3.58
2022-12-11T01:06:58.812Z,-3.62
2022-12-11T01:09:43.927Z,-3.61
2022-12-11T01:12:10.447Z,-3.57
2022-12-11T01:14:36.972Z,-3.58
2022-12-11T01:17:04.398Z,-3.59
2022-12-11T01:19:30.941Z,-3.53
2022-12-11T01:21:57.493Z,-3.56
2022-12-11T01:24:24.089Z,-3.41
2022-12-11T01:26:50.620Z,-3.38
2022-12-11T01:29:17.112Z,-3.39
2022-12-11T01:31:43.627Z,-3.31
2022-12-11T01:34:10.250Z,-3.44
2022-12-11T01:36:36.738Z,-3.25
2022-12-11T01:39:03.862Z,-3.39
2022-12-11T01:41:31.874Z,-3.19
2022-12-11T01:44:28.688Z,-3.22
2022-12-11T01:46:55.297Z,-3.35
2022-12-11T01:49:24.262Z,-3.12
2022-12-11T01:52:01.531Z,-3.12
2022-12-11T01:54:29.625Z,-3.04
2022-12-11T01:57:00.672Z,-3.04
2022-12-11T01:59:31.051Z,-2.97
2022-12-11T02:02:04.850Z,-2.98
2022-12-11T02:04:33.066Z,-2.99
2022-12-11T02:06:59.753Z,-2.99
2022-12-11T02:09:31.577Z,-2.90
2022-12-11T02:12:22.803Z,-2.92
2022-12-11T02:15:07.830Z,-2.86
2022-12-11T02:17:41.211Z,-2.88
2022-12-11T02:20:16.466Z,-2.82
2022-12-11T02:23:01.803Z,-2.81
2022-12-11T02:25:55.942Z,-2.82
2022-12-11T02:28:44.798Z,-2.84
2022-12-11T02:31:30.186Z,-2.81
2022-12-11T02:34:01.173Z,-2.81
2022-12-11T02:36:32.355Z,-2.94
2022-12-11T02:39:01.272Z,-2.81
2022-12-11T02:41:29.780Z,-2.88
2022-12-11T02:43:58.000Z,-2.80
2022-12-11T02:46:25.716Z,-2.83
2022-12-11T02:48:53.804Z,-2.75
2022-12-11T02:51:27.016Z,-2.81
2022-12-11T02:53:58.094Z,-2.76
2022-12-11T02:56:32.899Z,-2.73
2022-12-11T02:59:03.461Z,-2.72
2022-12-11T03:01:30.520Z,-2.79
2022-12-11T03:03:58.194Z,-2.72
2022-12-11T03:06:29.069Z,-2.72
2022-12-11T03:08:55.587Z,-2.73
2022-12-11T03:11:22.142Z,-2.94
2022-12-11T03:13:48.813Z,-2.79
2022-12-11T03:16:29.626Z,-2.91
2022-12-11T03:19:04.795Z,-2.94
2022-12-11T03:21:44.154Z,-2.81
2022-12-11T03:24:27.215Z,-2.93
2022-12-11T03:27:00.959Z,-2.84
2022-12-11T03:29:39.547Z,-2.92
2022-12-11T03:32:13.474Z,-2.83
2022-12-11T03:34:58.221Z,-2.87
2022-12-11T03:37:27.643Z,-3.01
2022-12-11T03:40:03.205Z,-2.87
2022-12-11T03:42:30.854Z,-3.19
2022-12-11T03:44:59.901Z,-2.92
2022-12-11T03:47:28.888Z,-2.88
2022-12-11T03:49:58.362Z,-2.93
2022-12-11T03:52:27.432Z,-2.91
2022-12-11T03:54:56.812Z,-3.03
2022-12-11T03:57:27.348Z,-2.89
2022-12-11T03:59:53.935Z,-2.91
2022-12-11T04:02:20.495Z,-2.88
2022-12-11T04:04:47.021Z,-3.15
2022-12-11T04:07:13.680Z,-2.93
2022-12-11T04:09:40.227Z,-2.90
2022-12-11T04:12:06.810Z,-3.00
2022-12-11T04:14:52.004Z,-3.00
2022-12-11T04:17:38.744Z,-2.89
2022-12-11T04:20:25.047Z,-2.94
2022-12-11T04:23:09.824Z,-2.92
2022-12-11T04:25:36.415Z,-2.90
2022-12-11T04:28:03.002Z,-2.94
2022-12-11T04:30:34.089Z,-2.85
2022-12-11T04:33:01.798Z,-2.84
2022-12-11T04:35:28.642Z,-2.83
2022-12-11T04:37:55.147Z,-2.85
2022-12-11T04:40:21.933Z,-2.79
2022-12-11T04:42:48.545Z,-2.92
2022-12-11T04:45:15.173Z,-2.82
2022-12-11T04:47:41.897Z,-2.75
2022-12-11T04:50:11.026Z,-2.72
2022-12-11T04:52:37.699Z,-2.75
2022-12-11T04:55:05.824Z,-2.73
2022-12-11T04:57:32.383Z,-2.84
2022-12-11T04:59:59.957Z,-2.67
2022-12-11T05:02:26.978Z,-2.65
2022-12-11T05:04:53.757Z,-2.73
2022-12-11T05:07:20.302Z,-2.56
2022-12-11T05:09:46.875Z,-2.64
2022-12-11T05:12:13.396Z,-2.55
2022-12-11T05:14:39.933Z,-2.46
2022-12-11T05:17:06.488Z,-2.51
2022-12-11T05:19:33.203Z,-2.46
2022-12-11T05:21:59.816Z,-2.41
2022-12-11T05:24:26.358Z,-2.44
2022-12-11T05:26:52.883Z,-2.38
2022-12-11T05:29:19.436Z,-2.39
2022-12-11T05:31:46.079Z,-2.52
2022-12-11T05:34:12.952Z,-2.55
2022-12-11T05:36:39.489Z,-2.42
2022-12-11T05:39:06.067Z,-2.45
2022-12-11T05:41:33.128Z,-2.30
2022-12-11T05:44:00.176Z,-2.25
2022-12-11T05:46:29.713Z,-2.26
2022-12-11T05:48:58.526Z,-2.22
2022-12-11T05:51:25.542Z,-2.19
2022-12-11T05:53:53.014Z,-2.16
2022-12-11T05:56:22.595Z,-2.16
2022-12-11T05:58:50.330Z,-2.08
2022-12-11T06:01:26.145Z,-2.08
2022-12-11T06:03:54.159Z,-2.07
2022-12-11T06:06:20.944Z,-2.13
2022-12-11T06:08:51.268Z,-2.10
2022-12-11T06:11:23.567Z,-2.03
2022-12-11T06:13:51.168Z,-2.10
2022-12-11T06:16:17.827Z,-2.00
2022-12-11T06:18:45.362Z,-2.01
2022-12-11T06:21:16.026Z,-2.19
2022-12-11T06:23:43.775Z,-1.98
2022-12-11T06:26:11.120Z,-1.98
2022-12-11T06:28:37.881Z,-1.99
2022-12-11T06:31:04.649Z,-2.01
2022-12-11T06:33:32.062Z,-1.96
2022-12-11T06:36:13.927Z,-1.97
2022-12-11T06:38:40.567Z,-1.93
2022-12-11T06:41:08.234Z,-1.91
2022-12-11T06:43:37.088Z,-1.89
2022-12-11T06:46:09.197Z,-2.06
2022-12-11T06:48:36.134Z,-1.90
2022-12-11T06:51:07.210Z,-1.95
2022-12-11T06:53:33.941Z,-2.03
2022-12-11T06:56:10.579Z,-2.12
2022-12-11T06:58:37.691Z,-2.03
2022-12-11T07:01:26.960Z,-1.89
2022-12-11T07:03:58.356Z,-1.90
2022-12-11T07:06:26.730Z,-2.12
2022-12-11T07:08:53.629Z,-1.85
2022-12-11T07:11:21.507Z,-1.92
2022-12-11T07:13:48.852Z,-1.84
2022-12-11T07:16:17.392Z,-1.80
2022-12-11T07:18:49.856Z,-1.80
2022-12-11T07:21:16.960Z,-1.87
2022-12-11T07:23:43.646Z,-1.80
2022-12-11T07:26:16.090Z,-1.80
2022-12-11T07:28:43.141Z,-1.82
2022-12-11T07:31:11.888Z,-1.81
2022-12-11T07:33:38.443Z,-1.82
2022-12-11T07:36:07.077Z,-1.79
2022-12-11T07:38:34.189Z,-1.88
2022-12-11T07:41:02.066Z,-1.74
2022-12-11T07:43:28.748Z,-1.91
2022-12-11T07:45:55.340Z,-1.91
2022-12-11T07:48:21.858Z,-1.92
2022-12-11T07:50:48.372Z,-1.74
2022-12-11T07:53:14.989Z,-1.68
2022-12-11T07:55:41.791Z,-1.78
2022-12-11T07:58:08.454Z,-1.68
2022-12-11T08:00:35.305Z,-2.06
2022-12-11T08:03:02.080Z,-1.95
2022-12-11T08:05:28.823Z,-1.91
2022-12-11T08:07:55.757Z,-2.04
2022-12-11T08:10:23.187Z,-1.78
2022-12-11T08:12:49.822Z,-1.95
2022-12-11T08:15:16.541Z,-1.83
2022-12-11T08:17:43.114Z,-1.70
2022-12-11T08:20:10.656Z,-1.56
2022-12-11T08:22:37.350Z,-1.83
2022-12-11T08:25:04.291Z,-1.86
2022-12-11T08:27:30.935Z,-1.77
2022-12-11T08:29:57.480Z,-1.67
2022-12-11T08:32:24.052Z,-1.58
2022-12-11T08:34:51.827Z,-1.49
2022-12-11T08:37:18.593Z,-1.55
2022-12-11T08:39:47.056Z,-1.67
2022-12-11T08:42:13.692Z,-1.38
2022-12-11T08:44:40.431Z,-1.35
2022-12-11T08:47:07.054Z,-1.43
2022-12-11T08:49:34.722Z,-1.54
2022-12-11T08:52:03.078Z,-1.57
2022-12-11T08:54:29.670Z,-1.55
2022-12-11T08:56:58.148Z,-1.47
2022-12-11T08:59:27.571Z,-1.45
2022-12-11T09:01:55.361Z,-1.36
2022-12-11T09:04:23.093Z,-1.49
2022-12-11T09:06:49.895Z,-1.53
2022-12-11T09:09:16.712Z,-1.42
2022-12-11T09:11:43.806Z,-1.37
2022-12-11T09:14:10.448Z,-1.29
2022-12-11T09:16:40.605Z,-1.30
2022-12-11T09:19:11.043Z,-1.38
2022-12-11T09:21:37.696Z,-1.36
2022-12-11T09:24:04.673Z,-1.38
2022-12-11T09:26:31.337Z,-1.26
2022-12-11T09:28:58.989Z,-1.35
2022-12-11T09:31:31.717Z,-1.14
2022-12-11T09:34:04.884Z,-1.09
2022-12-11T09:36:31.607Z,-1.36
2022-12-11T09:39:04.564Z,-1.35
2022-12-11T09:42:10.575Z,-1.28
2022-12-11T09:44:43.389Z,-1.05
2022-12-11T09:47:33.221Z,-1.00
2022-12-11T09:50:23.680Z,-1.05
2022-12-11T09:53:35.944Z,-1.12
2022-12-11T09:56:17.219Z,-0.99
2022-12-11T09:59:11.645Z,-0.95
2022-12-11T10:01:54.912Z,-0.93
2022-12-11T10:04:38.122Z,-0.87
2022-12-11T10:07:16.045Z,-1.05
2022-12-11T10:10:13.603Z,-0.74
2022-12-11T10:12:55.647Z,-0.71
2022-12-11T10:15:49.421Z,-0.87
2022-12-11T10:18:19.305Z,-0.64
2022-12-11T10:20:47.355Z,-0.67
2022-12-11T10:23:21.312Z,-0.73
2022-12-11T10:26:17.860Z,-0.73
2022-12-11T10:28:44.528Z,-0.76
2022-12-11T10:31:24.565Z,-0.53
2022-12-11T10:34:19.167Z,-0.50
2022-12-11T10:36:45.829Z,-0.58
2022-12-11T10:39:22.585Z,-0.60
2022-12-11T10:41:50.770Z,-0.59
2022-12-11T10:44:19.993Z,-0.55
2022-12-11T10:46:48.964Z,-0.62
2022-12-11T10:49:27.479Z,-0.37
2022-12-11T10:51:58.525Z,-0.33
2022-12-11T10:54:34.244Z,-0.31
2022-12-11T10:57:03.445Z,-0.50
2022-12-11T10:59:43.908Z,-0.34
2022-12-11T11:02:25.661Z,-0.29
2022-12-11T11:04:54.411Z,-0.38
2022-12-11T11:07:26.828Z,-0.52
2022-12-11T11:10:14.328Z,-0.20
2022-12-11T11:12:42.391Z,-0.19
2022-12-11T11:15:14.052Z,-0.54
2022-12-11T11:17:56.435Z,-0.23
2022-12-11T11:20:30.942Z,-0.22
2022-12-11T11:23:01.080Z,-0.20
2022-12-11T11:25:33.544Z,-0.17
2022-12-11T11:28:01.461Z,-0.18
2022-12-11T11:30:31.836Z,-0.30
2022-12-11T11:33:02.600Z,-0.33
2022-12-11T11:35:31.541Z,-0.13
2022-12-11T11:38:20.138Z,-0.43
2022-12-11T11:41:25.631Z,-0.12
2022-12-11T11:43:54.022Z,-0.09
2022-12-11T11:46:26.624Z,-0.33
2022-12-11T11:49:04.455Z,-0.07
2022-12-11T11:51:36.568Z,-0.13
2022-12-11T11:54:21.373Z,-0.16
2022-12-11T11:56:51.762Z,-0.15
2022-12-11T11:59:36.271Z,-0.27
2022-12-11T12:02:13.292Z,-0.19
2022-12-11T12:04:39.943Z,-0.11
2022-12-11T12:07:51.106Z,0.10
2022-12-11T12:10:24.456Z,-0.03
2022-12-11T12:13:01.514Z,0.14
2022-12-11T12:15:56.008Z,0.08
2022-12-11T12:18:59.536Z,0.16
2022-12-11T12:21:36.740Z,0.13
2022-12-11T12:24:28.550Z,0.12
2022-12-11T12:27:50.064Z,0.12
2022-12-11T12:30:14.141Z,-0.13
2022-12-11T12:33:17.653Z,0.11
2022-12-11T12:36:11.099Z,0.07
2022-12-11T12:38:55.222Z,0.18
2022-12-11T12:41:32.609Z,0.19
2022-12-11T12:44:08.333Z,0.19
2022-12-11T12:47:08.355Z,0.17
2022-12-11T12:49:41.807Z,-0.02
2022-12-11T12:52:34.678Z,0.07
2022-12-11T12:55:18.234Z,0.14
2022-12-11T12:57:47.768Z,0.31
2022-12-11T13:00:27.122Z,0.14
2022-12-11T13:02:56.128Z,0.07
2022-12-11T13:05:26.437Z,0.05
2022-12-11T13:07:59.854Z,0.29
2022-12-11T13:10:34.702Z,0.28
2022-12-11T13:13:02.579Z,0.15
2022-12-11T13:15:34.347Z,0.19
2022-12-11T13:18:03.954Z,0.32
2022-12-11T13:20:34.960Z,0.20
2022-12-11T13:23:07.558Z,0.35
2022-12-11T13:25:47.726Z,0.36
2022-12-11T13:28:40.697Z,0.37
2022-12-11T13:31:16.505Z,0.36
2022-12-11T13:33:47.473Z,0.29
2022-12-11T13:36:18.919Z,0.20
2022-12-11T13:38:55.138Z,0.18
2022-12-11T13:41:22.443Z,0.17
2022-12-11T13:43:50.706Z,0.17
2022-12-11T13:46:25.811Z,0.37
2022-12-11T13:48:57.303Z,0.30
2022-12-11T13:51:25.836Z,0.39
2022-12-11T13:54:17.600Z,0.24
2022-12-11T13:57:02.446Z,0.39
2022-12-11T13:59:38.079Z,0.26
2022-12-11T14:02:31.084Z,0.65
2022-12-11T14:05:02.239Z,0.31
2022-12-11T14:07:33.602Z,0.57
2022-12-11T14:10:17.061Z,0.51
2022-12-11T14:12:57.299Z,0.50
2022-12-11T14:15:24.918Z,0.77
2022-12-11T14:17:52.801Z,0.67
2022-12-11T14:20:22.939Z,0.61
2022-12-11T14:22:49.590Z,0.71
2022-12-11T14:25:27.494Z,0.80
2022-12-11T14:27:56.841Z,0.77
2022-12-11T14:30:30.045Z,0.65
2022-12-11T14:32:59.960Z,0.76
2022-12-11T14:35:32.874Z,0.85
2022-12-11T14:38:12.840Z,0.94
2022-12-11T14:40:44.005Z,0.90
2022-12-11T14:43:23.425Z,0.91
2022-12-11T14:45:54.457Z,0.96
2022-12-11T14:48:27.833Z,0.86
2022-12-11T14:51:00.196Z,0.84
2022-12-11T14:53:31.368Z,0.87
2022-12-11T14:56:02.817Z,1.00
2022-12-11T14:58:30.242Z,1.04
2022-12-11T15:01:03.151Z,0.91
2022-12-11T15:03:34.582Z,1.09
2022-12-11T15:06:02.913Z,0.99
2022-12-11T15:08:37.328Z,1.09
2022-12-11T15:11:05.719Z,1.00
2022-12-11T15:13:33.761Z,1.11
2022-12-11T15:16:00.638Z,1.20
2022-12-11T15:18:34.120Z,1.12
2022-12-11T15:21:07.429Z,1.04
2022-12-11T15:23:59.087Z,1.21
2022-12-11T15:26:38.279Z,0.70
2022-12-11T15:29:22.825Z,1.03
2022-12-11T15:32:04.344Z,1.00
2022-12-11T15:34:47.400Z,0.90
2022-12-11T15:37:36.901Z,1.26
2022-12-11T15:40:05.353Z,1.18
2022-12-11T15:42:39.977Z,1.04
2022-12-11T15:45:09.436Z,0.90
2022-12-11T15:47:36.170Z,1.08
2022-12-11T15:50:26.634Z,1.22
2022-12-11T15:52:57.056Z,1.14
2022-12-11T15:55:27.415Z,1.00
2022-12-11T15:58:00.854Z,1.23
2022-12-11T16:00:28.311Z,1.28
2022-12-11T16:02:59.297Z,1.34
2022-12-11T16:05:27.016Z,1.27
2022-12-11T16:07:59.678Z,1.11
2022-12-11T16:10:27.276Z,1.08
2022-12-11T16:12:59.451Z,1.38
2022-12-11T16:15:27.147Z,1.25
2022-12-11T16:18:04.787Z,1.21
2022-12-11T16:20:35.278Z,1.41
2022-12-11T16:23:08.759Z,1.28
2022-12-11T16:25:38.246Z,1.44
2022-12-11T16:28:06.608Z,1.22
2022-12-11T16:30:35.685Z,1.35
2022-12-11T16:33:10.249Z,1.12
2022-12-11T16:35:40.266Z,1.03
2022-12-11T16:38:08.020Z,0.88
2022-12-11T16:40:34.765Z,1.28
2022-12-11T16:43:01.431Z,1.35
2022-12-11T16:45:28.209Z,1.49
2022-12-11T16:47:55.142Z,1.40
2022-12-11T16:50:25.476Z,1.25
2022-12-11T16:52:55.037Z,1.26
2022-12-11T16:55:22.353Z,1.09
2022-12-11T16:57:49.102Z,1.31
2022-12-11T17:00:16.787Z,1.40
2022-12-11T17:02:43.726Z,1.38
2022-12-11T17:05:12.986Z,1.38
2022-12-11T17:07:40.466Z,1.57
2022-12-11T17:10:07.938Z,1.29
2022-12-11T17:12:34.874Z,1.55
2022-12-11T17:15:01.697Z,1.39
2022-12-11T17:17:28.422Z,1.47
2022-12-11T17:19:55.015Z,1.33
2022-12-11T17:22:22.052Z,1.28
2022-12-11T17:24:48.594Z,1.25
2022-12-11T17:27:15.303Z,1.22
2022-12-11T17:29:41.856Z,1.41
2022-12-11T17:32:08.857Z,1.32
2022-12-11T17:34:38.460Z,1.22
2022-12-11T17:37:06.278Z,1.43
2022-12-11T17:39:33.534Z,1.49
2022-12-11T17:42:00.382Z,1.35
2022-12-11T17:44:30.789Z,1.25
2022-12-11T17:46:58.703Z,1.45
2022-12-11T17:49:26.524Z,1.46
2022-12-11T17:51:55.393Z,1.34
2022-12-11T17:54:24.158Z,1.45
2022-12-11T17:56:51.072Z,1.33
2022-12-11T17:59:17.717Z,1.36
2022-12-11T18:01:44.295Z,1.45
2022-12-11T18:04:11.041Z,1.44
2022-12-11T18:06:37.800Z,1.41
2022-12-11T18:09:06.099Z,1.35
2022-12-11T18:11:32.738Z,1.36
2022-12-11T18:13:59.629Z,1.44
2022-12-11T18:16:29.787Z,1.38
2022-12-11T18:18:56.610Z,1.43
2022-12-11T18:21:32.371Z,1.22
2022-12-11T18:24:00.067Z,1.45
2022-12-11T18:26:26.745Z,1.23
2022-12-11T18:28:53.800Z,1.38
2022-12-11T18:31:21.787Z,1.45
2022-12-11T18:33:48.879Z,1.46
2022-12-11T18:36:17.415Z,1.45
2022-12-11T18:38:47.192Z,1.27
2022-12-11T18:41:16.434Z,1.41
2022-12-11T18:43:43.007Z,1.23
2022-12-11T18:46:12.602Z,1.43
2022-12-11T18:48:39.171Z,1.42
2022-12-11T18:51:11.065Z,1.40
2022-12-11T18:53:39.516Z,1.20
2022-12-11T18:56:09.124Z,1.28
2022-12-11T18:58:36.277Z,1.42
2022-12-11T19:01:18.220Z,1.24
2022-12-11T19:03:45.060Z,1.41
2022-12-11T19:06:21.895Z,1.27
2022-12-11T19:08:48.642Z,1.10
2022-12-11T19:11:17.677Z,1.35
2022-12-11T19:13:44.782Z,1.42
2022-12-11T19:16:20.041Z,1.43
2022-12-11T19:18:49.111Z,1.30
2022-12-11T19:21:17.157Z,1.42
2022-12-11T19:23:44.706Z,1.41
2022-12-11T19:26:17.650Z,1.38
2022-12-11T19:28:44.585Z,1.40
2022-12-11T19:31:21.179Z,1.36
2022-12-11T19:33:48.188Z,1.43
2022-12-11T19:36:18.353Z,1.44
2022-12-11T19:38:45.886Z,1.44
2022-12-11T19:41:23.494Z,1.44
2022-12-11T19:43:51.080Z,1.32
2022-12-11T19:46:18.297Z,1.18
2022-12-11T19:48:45.169Z,1.42
2022-12-11T19:51:20.201Z,1.43
2022-12-11T19:53:48.101Z,1.27
2022-12-11T19:56:15.906Z,1.32
2022-12-11T19:58:42.724Z,1.27
2022-12-11T20:01:10.496Z,1.33
2022-12-11T20:03:37.155Z,1.23
2022-12-11T20:06:08.060Z,1.31
2022-12-11T20:08:44.576Z,1.31
2022-12-11T20:11:17.951Z,1.16
2022-12-11T20:13:48.630Z,1.14
2022-12-11T20:16:16.979Z,1.19
2022-12-11T20:18:43.893Z,1.22
2022-12-11T20:21:17.439Z,1.20
2022-12-11T20:23:44.674Z,1.00
2022-12-11T20:26:14.496Z,0.97
2022-12-11T20:28:41.455Z,1.04
2022-12-11T20:31:16.435Z,1.21
2022-12-11T20:33:46.704Z,1.12
2022-12-11T20:36:15.116Z,1.23
2022-12-11T20:38:41.766Z,1.04
2022-12-11T20:41:10.752Z,1.24
2022-12-11T20:43:38.492Z,1.09
2022-12-11T20:46:06.954Z,1.02
2022-12-11T20:48:34.544Z,1.05
2022-12-11T20:51:02.736Z,1.11
2022-12-11T20:53:30.022Z,1.11
2022-12-11T20:55:57.356Z,1.18
2022-12-11T20:58:24.234Z,0.94
2022-12-11T21:00:51.055Z,1.17
2022-12-11T21:03:17.906Z,1.05
2022-12-11T21:05:45.763Z,1.17
2022-12-11T21:08:12.831Z,1.06
2022-12-11T21:10:44.936Z,1.04
2022-12-11T21:13:11.494Z,1.13
2022-12-11T21:15:39.757Z,0.98
2022-12-11T21:18:07.696Z,0.90
2022-12-11T21:20:35.523Z,1.03
2022-12-11T21:23:03.865Z,1.16
2022-12-11T21:25:30.869Z,0.96
2022-12-11T21:27:57.388Z,1.02
2022-12-11T21:30:24.047Z,1.19
2022-12-11T21:32:50.648Z,0.87
2022-12-11T21:35:17.727Z,1.13
2022-12-11T21:37:44.478Z,0.98
2022-12-11T21:40:14.305Z,1.22
2022-12-11T21:42:41.078Z,0.94
2022-12-11T21:45:52.171Z,1.01
2022-12-11T21:47:54.364Z,1.08
2022-12-11T21:50:21.503Z,0.92
2022-12-11T21:52:48.157Z,1.02
2022-12-11T21:55:15.039Z,1.16
2022-12-11T21:57:41.915Z,1.07
2022-12-11T22:00:09.660Z,1.16
2022-12-11T22:02:40.733Z,0.99
2022-12-11T22:05:08.645Z,1.05
2022-12-11T22:07:35.267Z,1.26
2022-12-11T22:10:02.396Z,0.95
2022-12-11T22:12:29.999Z,1.09
2022-12-11T22:14:56.921Z,1.09
2022-12-11T22:17:24.326Z,1.05
2022-12-11T22:19:52.111Z,1.15
2022-12-11T22:22:19.387Z,1.22
2022-12-11T22:24:46.688Z,1.24
2022-12-11T22:27:13.377Z,1.05
2022-12-11T22:29:39.974Z,1.05
2022-12-11T22:32:06.604Z,1.23
2022-12-11T22:34:33.134Z,1.05
2022-12-11T22:36:59.666Z,1.01
2022-12-11T22:39:26.350Z,1.19
2022-12-11T22:41:52.901Z,1.01
2022-12-11T22:44:20.898Z,1.12
2022-12-11T22:46:50.415Z,1.00
2022-12-11T22:49:20.541Z,1.29
2022-12-11T22:51:47.230Z,1.23
2022-12-11T22:54:13.835Z,1.06
2022-12-11T22:56:40.514Z,1.04
2022-12-11T22:59:07.650Z,0.97
2022-12-11T23:01:34.754Z,1.13
2022-12-11T23:04:01.793Z,1.04
2022-12-11T23:06:28.452Z,1.21
2022-12-11T23:08:58.640Z,1.25
2022-12-11T23:11:28.459Z,1.25
2022-12-11T23:13:56.353Z,1.21
2022-12-11T23:16:24.949Z,1.23
2022-12-11T23:18:52.231Z,1.21
2022-12-11T23:21:18.999Z,1.05
2022-12-11T23:23:45.749Z,1.18
2022-12-11T23:26:13.926Z,1.24
2022-12-11T23:28:41.452Z,1.07
2022-12-11T23:31:10.161Z,1.28
2022-12-11T23:33:37.379Z,1.31
2022-12-11T23:36:05.058Z,1.15
2022-12-11T23:38:32.082Z,1.28
2022-12-11T23:41:01.617Z,1.30
2022-12-11T23:43:28.625Z,1.23
2022-12-11T23:45:55.265Z,1.13
2022-12-11T23:48:21.964Z,1.14
2022-12-11T23:50:48.546Z,1.33
2022-12-11T23:53:15.583Z,1.08
2022-12-11T23:55:44.381Z,1.19
2022-12-11T23:58:11.234Z,1.17
